EW3345 Elva EE current weather conditions

sailwx.info

Wind from 315 at 2 knots gusting 4

Air temperature 26.7° C
Dewpoint 18.8° C

Last reported at 2020-Aug-08 15:56 UTC.
Time now 2020-Aug-08 17:01 UTC

Location: N 58°16' E 026°28'.
View on Google Maps.

See reports from other nearby stations

  
Tides and Currents Weather Stations Pressure Air Temp Water Temp Dewpoint Dewpoint Depression Visibility Wind Speed Wind Dir Waves Ship Positions
date/time (UTC)wind fromknots sea level pressurealtimeterstation pressurevisibilityair tempwater tempwave heightnotes
2020-Aug-08 15:56 315 2 gusting 4 26.7
2020-Aug-08 15:46 293 3 gusting 4 26.7
2020-Aug-08 15:36 293 2 gusting 4 26.7
2020-Aug-08 15:26 338 1 gusting 3 26.7
2020-Aug-08 15:16 338 1 gusting 2 26.7
2020-Aug-08 15:06 338 0 gusting 2 26.7
2020-Aug-08 14:56 315 3 gusting 4 27.2
2020-Aug-08 14:46 26.7
2020-Aug-08 14:36 315 0 gusting 2 26.7
2020-Aug-08 14:26 26.1
2020-Aug-08 14:16 315 1 gusting 2 26.1
2020-Aug-08 14:06 315 2 gusting 4 26.7
2020-Aug-08 13:56 26.7
2020-Aug-08 13:46 293 1 gusting 2 26.7
2020-Aug-08 13:36 293 1 gusting 3 26.1
2020-Aug-08 13:26 293 3 gusting 3 26.1
2020-Aug-08 13:16 315 4 gusting 5 26.1
2020-Aug-08 13:06 293 3 gusting 5 26.1
2020-Aug-08 12:56 315 3 gusting 5 26.1
2020-Aug-08 12:46 270 2 gusting 5 26.1
2020-Aug-08 12:36 293 2 gusting 3 26.1
2020-Aug-08 12:26 248 1 gusting 3 26.1
2020-Aug-08 12:16 203 1 gusting 2 26.1
2020-Aug-08 12:06 293 0 gusting 2 25.6
2020-Aug-08 11:56 248 1 gusting 3 25.6
2020-Aug-08 11:46 338 1 gusting 2 25.6
2020-Aug-08 11:36 338 0 gusting 1 23.9
2020-Aug-08 11:26 338 0 gusting 0 23.9
2020-Aug-08 11:16 338 0 gusting 1 23.9
2020-Aug-08 11:06 338 1 gusting 2 24.4
2020-Aug-08 10:56 315 1 gusting 3 25.0
2020-Aug-08 10:46 293 2 gusting 5 25.6
2020-Aug-08 10:36 293 0 gusting 1 25.0
2020-Aug-08 10:26 293 0 gusting 2 24.4
2020-Aug-08 10:16 270 5 gusting 6 25.0
2020-Aug-08 10:06 25.0
2020-Aug-08 09:56 248 1 gusting 2 23.9
2020-Aug-08 09:46 23.3
2020-Aug-08 09:36 338 0 gusting 0 23.3
2020-Aug-08 09:26 338 2 gusting 3 23.9
2020-Aug-08 09:16 315 4 gusting 6 25.0
2020-Aug-08 09:06 113 4 gusting 6 25.0
2020-Aug-08 08:56 113 1 gusting 4 24.4
2020-Aug-08 08:46 293 1 gusting 3 24.4
2020-Aug-08 08:36 24.4
2020-Aug-08 08:26 090 0 gusting 2 24.4
2020-Aug-08 08:16 23.9
2020-Aug-08 08:06 23.3
2020-Aug-08 07:56 22.8
2020-Aug-08 07:46 22.8
2020-Aug-08 07:36 22.8
2020-Aug-08 07:26 23.3
2020-Aug-08 07:16 23.3
2020-Aug-08 07:06 23.9
2020-Aug-08 06:56 24.4
2020-Aug-08 06:46 24.4
2020-Aug-08 06:36 23.9
2020-Aug-08 06:26 090 0 gusting 2 23.3
2020-Aug-08 06:16 22.8
2020-Aug-08 06:06 21.7
2020-Aug-08 05:56 21.7
2020-Aug-08 05:46 21.1
2020-Aug-08 05:36 20.6
2020-Aug-08 05:26 20.0
2020-Aug-08 05:16 20.0
2020-Aug-08 05:06 18.9
2020-Aug-08 04:56 18.9
2020-Aug-08 04:46 18.3
2020-Aug-08 04:36 18.3
2020-Aug-08 04:26 17.8
2020-Aug-08 04:16 17.8
2020-Aug-08 04:06 17.8
2020-Aug-08 03:56 17.8
2020-Aug-08 03:46 17.8
2020-Aug-08 03:36 17.8
2020-Aug-08 03:26 17.8
2020-Aug-08 03:16 17.2
2020-Aug-08 03:06 17.2
2020-Aug-08 02:56 17.2
2020-Aug-08 02:46 17.2
2020-Aug-08 02:36 17.2
2020-Aug-08 02:26 17.2
2020-Aug-08 02:16 17.2
2020-Aug-08 02:06 17.2
2020-Aug-08 01:56 17.2
2020-Aug-08 01:46 17.2
2020-Aug-08 01:36 17.2
2020-Aug-08 01:26 17.2
2020-Aug-08 01:16 17.2
2020-Aug-08 01:06 17.2
2020-Aug-08 00:56 17.2
2020-Aug-08 00:46 17.2
2020-Aug-08 00:36 17.2
2020-Aug-08 00:26 17.2
2020-Aug-08 00:16 17.2
2020-Aug-08 00:06 17.2
2020-Aug-07 23:56 17.2
2020-Aug-07 23:46 17.2
2020-Aug-07 23:36 17.2
2020-Aug-07 23:26 17.2
2020-Aug-07 23:16 17.2
2020-Aug-07 23:06 17.2
2020-Aug-07 22:56 17.2
2020-Aug-07 22:46 17.2
2020-Aug-07 22:36 17.2
2020-Aug-07 22:26 17.2
2020-Aug-07 22:16 17.2
2020-Aug-07 22:06 17.2
2020-Aug-07 21:56 17.8
2020-Aug-07 21:46 17.8
2020-Aug-07 21:36 17.8
2020-Aug-07 21:26 17.8
2020-Aug-07 21:16 17.8
2020-Aug-07 21:06 18.3
2020-Aug-07 20:56 18.3
2020-Aug-07 20:46 18.3
2020-Aug-07 20:36 18.3
2020-Aug-07 20:26 18.3
2020-Aug-07 20:16 18.3
2020-Aug-07 20:06 18.3
2020-Aug-07 19:56 18.9
2020-Aug-07 19:46 18.9
2020-Aug-07 19:36 18.9
2020-Aug-07 19:26 19.4
2020-Aug-07 19:16 20.0
2020-Aug-07 19:06 20.0
2020-Aug-07 18:56 20.6
2020-Aug-07 18:46 21.1
2020-Aug-07 18:36 21.1
2020-Aug-07 18:26 21.7
2020-Aug-07 18:16 22.2
2020-Aug-07 18:06 22.8
2020-Aug-07 17:56 23.9
2020-Aug-07 17:46 25.0
2020-Aug-07 17:36 26.1
2020-Aug-07 17:26 26.1
2020-Aug-07 17:16 25.6
2020-Aug-07 17:06 25.0
2020-Aug-07 16:56 25.6
2020-Aug-07 16:46 25.6
2020-Aug-07 16:36 24.4
2020-Aug-07 16:26 23.9
2020-Aug-07 16:16 23.9
2020-Aug-07 16:06 23.9
2020-Aug-07 15:56 23.9
2020-Aug-07 15:46 23.9
2020-Aug-07 15:36 23.9
2020-Aug-07 15:26 23.3
2020-Aug-07 15:16 23.3
2020-Aug-07 15:06 23.3
2020-Aug-07 14:56 23.3
2020-Aug-07 14:46 23.9
2020-Aug-07 14:36 23.9
2020-Aug-07 14:26 338 2 gusting 3 23.3
2020-Aug-07 14:16 315 2 gusting 3 23.9
2020-Aug-07 14:06 338 0 gusting 2 24.4
2020-Aug-07 13:56 338 1 gusting 3 25.0
2020-Aug-07 13:46 25.6
2020-Aug-07 13:36 338 1 gusting 3 25.0
2020-Aug-07 13:26 24.4
2020-Aug-07 13:16 338 0 gusting 2 24.4
2020-Aug-07 13:06 315 3 gusting 3 23.9
2020-Aug-07 12:56 023 0 gusting 1 24.4
2020-Aug-07 12:46 090 0 gusting 2 25.0
2020-Aug-07 12:36 248 1 gusting 3 23.9
2020-Aug-07 12:26 315 1 gusting 3 23.3
2020-Aug-07 12:16 293 4 gusting 6 23.9
2020-Aug-07 12:06 293 4 gusting 5 23.3
2020-Aug-07 11:56 315 2 gusting 4 23.3
2020-Aug-07 11:46 315 1 gusting 2 23.3
2020-Aug-07 11:36 315 2 gusting 5 23.3
2020-Aug-07 11:26 270 4 gusting 6 22.8
2020-Aug-07 11:16 293 1 gusting 5 22.2
2020-Aug-07 11:06 315 4 gusting 5 22.2
2020-Aug-07 10:56 22.2
2020-Aug-07 10:46 338 1 gusting 2 22.2
2020-Aug-07 10:36 315 3 gusting 6 21.7
2020-Aug-07 10:26 315 4 gusting 7 21.7
2020-Aug-07 10:16 270 0 gusting 2 21.1
2020-Aug-07 10:06 21.1
2020-Aug-07 09:56 315 0 gusting 1 21.1
2020-Aug-07 09:46 21.1
2020-Aug-07 09:36 338 2 gusting 4 21.1
2020-Aug-07 09:26 315 3 gusting 4 20.6
2020-Aug-07 09:16 315 3 gusting 5 20.6
2020-Aug-07 09:06 315 2 gusting 4 20.6
2020-Aug-07 08:56 20.6
2020-Aug-07 08:46 293 4 gusting 6 20.6
2020-Aug-07 08:36 293 2 gusting 4 20.0
2020-Aug-07 08:26 315 0 gusting 2 19.4
2020-Aug-07 08:16 315 4 gusting 6 19.4
2020-Aug-07 08:06 315 5 gusting 6 18.9
2020-Aug-07 07:56 315 0 gusting 1 18.9
2020-Aug-07 07:46 293 2 gusting 3 18.3
2020-Aug-07 07:36 270 4 gusting 5 18.3
2020-Aug-07 07:26 270 3 gusting 4 18.3
2020-Aug-07 07:16 270 2 gusting 4 18.3
2020-Aug-07 07:06 270 3 gusting 5 18.3
2020-Aug-07 06:56 293 3 gusting 5 18.3
2020-Aug-07 06:46 270 3 gusting 5 18.3
2020-Aug-07 06:36 293 4 gusting 5 18.3
2020-Aug-07 06:26 270 1 gusting 3 18.9
2020-Aug-07 06:16 315 2 gusting 4 18.3
2020-Aug-07 06:06 293 1 gusting 3 18.3
2020-Aug-07 05:56 293 0 gusting 1 17.8
2020-Aug-07 05:46 293 1 gusting 2 17.8
2020-Aug-07 05:36 293 1 gusting 2 17.8
2020-Aug-07 05:26 315 2 gusting 3 17.8
2020-Aug-07 05:16 293 4 gusting 5 17.8
2020-Aug-07 05:06 293 3 gusting 4 17.8
2020-Aug-07 04:56 293 3 gusting 5 17.8
2020-Aug-07 04:46 293 2 gusting 3 17.8
2020-Aug-07 04:36 293 3 gusting 4 17.2
2020-Aug-07 04:26 293 3 gusting 5 17.2
2020-Aug-07 04:16 293 1 gusting 3 17.2
2020-Aug-07 04:06 315 2 gusting 3 17.2
2020-Aug-07 03:56 270 1 gusting 2 17.2
2020-Aug-07 03:46 270 0 gusting 1 17.2
2020-Aug-07 03:36 270 1 gusting 3 17.2
2020-Aug-07 03:26 270 0 gusting 0 17.2
2020-Aug-07 03:16 270 0 gusting 1 16.7
2020-Aug-07 03:06 270 0 gusting 1 16.7
2020-Aug-07 02:56 270 0 gusting 0 16.7
2020-Aug-07 02:46 270 0 gusting 1 16.7
2020-Aug-07 02:36 270 1 gusting 1 16.7
2020-Aug-07 02:26 270 0 gusting 1 16.7
2020-Aug-07 02:16 270 1 gusting 2 16.7
2020-Aug-07 02:06 270 0 gusting 0 16.7
2020-Aug-07 01:56 16.7
2020-Aug-07 01:46 270 0 gusting 1 16.7
2020-Aug-07 01:36 270 0 gusting 1 16.7
2020-Aug-07 01:26 270 0 gusting 0 16.7
2020-Aug-07 01:16 270 0 gusting 1 16.7
2020-Aug-07 01:06 270 2 gusting 4 16.7
2020-Aug-07 00:56 270 2 gusting 3 16.7
2020-Aug-07 00:46 225 0 gusting 2 16.7
2020-Aug-07 00:36 225 1 gusting 2 16.7
2020-Aug-07 00:26 248 1 gusting 2 16.7
2020-Aug-07 00:16 270 0 gusting 0 16.7
2020-Aug-07 00:06 17.2
2020-Aug-06 23:56 17.2
2020-Aug-06 23:46 17.2
2020-Aug-06 23:36 17.2
2020-Aug-06 23:26 17.2
2020-Aug-06 23:16 17.8
2020-Aug-06 23:06 17.8
2020-Aug-06 22:56 17.8
2020-Aug-06 22:46 18.3
2020-Aug-06 22:36 18.3
2020-Aug-06 22:26 18.3
2020-Aug-06 22:16 18.9
2020-Aug-06 22:06 18.9
2020-Aug-06 21:56 18.9
2020-Aug-06 21:46 18.9
2020-Aug-06 21:36 18.9
2020-Aug-06 21:26 18.9
2020-Aug-06 21:16 18.9
2020-Aug-06 21:06 18.9
2020-Aug-06 20:56 18.9
2020-Aug-06 20:46 18.9
2020-Aug-06 20:36 18.9
2020-Aug-06 20:26 19.4
2020-Aug-06 20:16 19.4
2020-Aug-06 20:06 19.4
2020-Aug-06 19:56 19.4
2020-Aug-06 19:46 19.4
2020-Aug-06 19:36 270 1 gusting 2 19.4
2020-Aug-06 19:26 270 1 gusting 2 19.4
2020-Aug-06 19:16 225 0 gusting 1 19.4
2020-Aug-06 19:06 19.4
2020-Aug-06 18:56 20.0
2020-Aug-06 18:46 20.0
2020-Aug-06 18:36 20.0
2020-Aug-06 18:26 20.0
2020-Aug-06 18:16 20.0
2020-Aug-06 18:06 20.6
2020-Aug-06 17:56 20.6
2020-Aug-06 17:46 20.6
2020-Aug-06 17:36 20.6
2020-Aug-06 17:26 248 1 gusting 2 20.6
2020-Aug-06 17:16 248 2 gusting 3 20.6
2020-Aug-06 17:06 248 2 gusting 3 20.6